createdAt,value
2023-01-30T00:00:34.177Z,0.00
2023-01-30T00:01:35.114Z,0.00
2023-01-30T00:02:35.967Z,0.00
2023-01-30T00:03:36.824Z,0.00
2023-01-30T00:04:37.681Z,0.00
2023-01-30T00:05:38.533Z,0.00
2023-01-30T00:06:39.388Z,0.00
2023-01-30T00:07:40.245Z,0.00
2023-01-30T00:08:41.107Z,0.00
2023-01-30T00:09:41.957Z,0.00
2023-01-30T00:10:42.742Z,0.00
2023-01-30T00:11:43.634Z,0.00
2023-01-30T00:12:44.463Z,0.00
2023-01-30T00:13:45.317Z,0.00
2023-01-30T00:14:46.164Z,0.00
2023-01-30T00:15:47.029Z,0.00
2023-01-30T00:16:47.879Z,0.00
2023-01-30T00:17:48.731Z,0.00
2023-01-30T00:18:49.603Z,0.00
2023-01-30T00:19:50.457Z,0.00
2023-01-30T00:20:51.320Z,0.00
2023-01-30T00:21:52.182Z,0.00
2023-01-30T00:23:00.811Z,0.00
2023-01-30T00:23:54.781Z,0.00
2023-01-30T00:24:54.761Z,0.00
2023-01-30T00:25:55.606Z,0.00
2023-01-30T00:26:56.596Z,0.00
2023-01-30T00:27:56.957Z,0.00
2023-01-30T00:28:57.834Z,0.00
2023-01-30T00:30:03.376Z,0.00
2023-01-30T00:31:00.560Z,0.00
2023-01-30T00:32:00.476Z,0.00
2023-01-30T00:33:01.297Z,0.00
2023-01-30T00:34:02.175Z,0.00
2023-01-30T00:35:03.027Z,0.00
2023-01-30T00:36:03.883Z,0.00
2023-01-30T00:37:08.356Z,0.00
2023-01-30T00:38:05.441Z,0.00
2023-01-30T00:39:06.294Z,0.00
2023-01-30T00:40:07.170Z,0.00
2023-01-30T00:41:08.000Z,0.00
2023-01-30T00:42:08.864Z,0.00
2023-01-30T00:44:10.566Z,0.00
2023-01-30T00:45:11.440Z,0.00
2023-01-30T00:46:12.325Z,0.00
2023-01-30T00:47:13.601Z,0.00
2023-01-30T00:48:13.958Z,0.00
2023-01-30T00:49:14.824Z,0.00
2023-01-30T00:50:15.681Z,0.00
2023-01-30T00:51:16.551Z,0.00
2023-01-30T00:52:17.602Z,0.00
2023-01-30T00:53:17.957Z,0.00
2023-01-30T00:54:18.823Z,0.00
2023-01-30T00:55:19.975Z,0.00
2023-01-30T00:56:20.379Z,0.00
2023-01-30T00:57:21.598Z,0.00
2023-01-30T00:58:21.959Z,0.00
2023-01-30T00:59:22.823Z,0.00
2023-01-30T01:00:23.668Z,0.00
2023-01-30T01:01:24.539Z,0.00
2023-01-30T01:02:25.408Z,0.00
2023-01-30T01:03:26.262Z,0.00
2023-01-30T01:04:27.116Z,0.00
2023-01-30T01:05:27.983Z,0.00
2023-01-30T01:06:28.865Z,0.00
2023-01-30T01:07:29.707Z,0.00
2023-01-30T01:08:30.566Z,0.00
2023-01-30T01:09:31.432Z,0.00
2023-01-30T01:10:32.303Z,0.00
2023-01-30T01:11:33.106Z,0.00
2023-01-30T01:12:33.969Z,0.00
2023-01-30T01:13:34.822Z,0.00
2023-01-30T01:14:35.671Z,0.00
2023-01-30T01:15:36.633Z,0.00
2023-01-30T01:16:37.574Z,0.00
2023-01-30T01:17:38.377Z,0.00
2023-01-30T01:18:39.231Z,0.00
2023-01-30T01:19:40.100Z,0.00
2023-01-30T01:20:40.941Z,0.00
2023-01-30T01:21:41.792Z,0.00
2023-01-30T01:22:42.652Z,0.00
2023-01-30T01:23:43.499Z,0.00
2023-01-30T01:24:44.353Z,0.00
2023-01-30T01:25:45.288Z,0.00
2023-01-30T01:26:46.125Z,0.00
2023-01-30T01:27:47.083Z,0.00
2023-01-30T01:28:47.461Z,0.00
2023-01-30T01:29:48.311Z,0.00
2023-01-30T01:30:49.169Z,0.00
2023-01-30T01:31:50.092Z,0.00
2023-01-30T01:32:50.905Z,0.00
2023-01-30T01:33:51.761Z,0.00
2023-01-30T01:34:52.623Z,0.00
2023-01-30T01:35:53.478Z,0.00
2023-01-30T01:36:54.896Z,0.00
2023-01-30T01:37:54.881Z,0.00
2023-01-30T01:38:55.719Z,0.00
2023-01-30T01:39:56.572Z,0.00
2023-01-30T01:40:57.448Z,0.00
2023-01-30T01:41:58.255Z,0.00
2023-01-30T01:42:59.121Z,0.00
2023-01-30T01:44:00.009Z,0.00
2023-01-30T01:45:00.867Z,0.00
2023-01-30T01:46:01.742Z,0.00
2023-01-30T01:47:02.641Z,0.00
2023-01-30T01:48:03.511Z,0.00
2023-01-30T01:49:04.359Z,0.00
2023-01-30T01:50:05.213Z,0.00
2023-01-30T01:51:06.066Z,0.00
2023-01-30T01:52:06.922Z,0.00
2023-01-30T01:53:08.093Z,0.00
2023-01-30T01:54:08.611Z,0.00
2023-01-30T01:55:09.468Z,0.00
2023-01-30T01:56:10.364Z,0.00
2023-01-30T01:57:11.154Z,0.00
2023-01-30T01:58:12.084Z,0.00
2023-01-30T01:59:12.935Z,0.00
2023-01-30T02:00:13.814Z,0.00
2023-01-30T02:01:14.676Z,0.00
2023-01-30T02:02:15.595Z,0.00
2023-01-30T02:03:16.418Z,0.00
2023-01-30T02:04:17.268Z,0.00
2023-01-30T02:05:18.633Z,0.00
2023-01-30T02:06:18.637Z,0.00
2023-01-30T02:07:19.485Z,0.00
2023-01-30T02:08:20.579Z,0.00
2023-01-30T02:09:20.947Z,0.00
2023-01-30T02:10:21.807Z,0.00
2023-01-30T02:11:22.700Z,0.00
2023-01-30T02:12:23.525Z,0.00
2023-01-30T02:13:24.392Z,0.00
2023-01-30T02:14:25.244Z,0.00
2023-01-30T02:15:26.102Z,0.00
2023-01-30T02:16:26.951Z,0.00
2023-01-30T02:17:27.827Z,0.00
2023-01-30T02:18:28.670Z,0.00
2023-01-30T02:19:29.526Z,0.00
2023-01-30T02:20:30.393Z,0.00
2023-01-30T02:21:31.250Z,0.00
2023-01-30T02:22:32.103Z,0.00
2023-01-30T02:23:33.076Z,0.00
2023-01-30T02:24:33.939Z,0.00
2023-01-30T02:25:34.820Z,0.00
2023-01-30T02:26:35.710Z,0.00
2023-01-30T02:27:36.567Z,0.00
2023-01-30T02:28:37.580Z,0.00
2023-01-30T02:29:37.936Z,0.00
2023-01-30T02:30:38.902Z,0.00
2023-01-30T02:31:39.879Z,0.00
2023-01-30T02:32:40.251Z,0.00
2023-01-30T02:33:41.120Z,0.00
2023-01-30T02:34:41.967Z,0.00
2023-01-30T02:35:42.816Z,0.00
2023-01-30T02:36:43.667Z,0.00
2023-01-30T02:37:44.521Z,0.00
2023-01-30T02:38:45.380Z,0.00
2023-01-30T02:39:46.230Z,0.00
2023-01-30T02:40:47.086Z,0.00
2023-01-30T02:41:47.961Z,0.00
2023-01-30T02:42:48.765Z,0.00
2023-01-30T02:43:49.624Z,0.00
2023-01-30T02:44:50.479Z,0.00
2023-01-30T02:45:51.354Z,0.00
2023-01-30T02:46:52.179Z,0.00
2023-01-30T02:47:53.046Z,0.00
2023-01-30T02:48:53.910Z,0.00
2023-01-30T02:49:54.767Z,0.00
2023-01-30T02:50:55.617Z,0.00
2023-01-30T02:51:56.463Z,0.00
2023-01-30T02:52:57.317Z,0.00
2023-01-30T02:53:58.189Z,0.00
2023-01-30T02:54:59.055Z,0.00
2023-01-30T02:55:59.892Z,0.00
2023-01-30T02:57:00.781Z,0.00
2023-01-30T02:58:01.604Z,0.00
2023-01-30T02:59:02.588Z,0.00
2023-01-30T03:00:03.417Z,0.00
2023-01-30T03:01:04.295Z,0.00
2023-01-30T03:02:05.149Z,0.00
2023-01-30T03:03:05.980Z,0.00
2023-01-30T03:04:06.856Z,0.00
2023-01-30T03:05:07.702Z,0.00
2023-01-30T03:06:08.549Z,0.00
2023-01-30T03:07:09.399Z,0.00
2023-01-30T03:08:10.262Z,0.00
2023-01-30T03:09:11.114Z,0.00
2023-01-30T03:10:11.964Z,0.00
2023-01-30T03:11:12.815Z,0.00
2023-01-30T03:12:13.684Z,0.00
2023-01-30T03:13:14.502Z,0.00
2023-01-30T03:14:15.401Z,0.00
2023-01-30T03:15:16.612Z,0.00
2023-01-30T03:16:17.166Z,0.00
2023-01-30T03:17:17.957Z,0.00
2023-01-30T03:18:18.808Z,0.00
2023-01-30T03:19:19.680Z,0.00
2023-01-30T03:20:20.531Z,0.00
2023-01-30T03:21:21.386Z,0.00
2023-01-30T03:22:22.235Z,0.00
2023-01-30T03:23:23.086Z,0.00
2023-01-30T03:24:23.965Z,0.00
2023-01-30T03:25:24.810Z,0.00
2023-01-30T03:26:25.672Z,0.00
2023-01-30T03:27:26.526Z,0.00
2023-01-30T03:28:27.349Z,0.00
2023-01-30T03:29:28.562Z,0.00
2023-01-30T03:30:28.922Z,0.00
2023-01-30T03:31:29.634Z,0.00
2023-01-30T03:32:30.528Z,0.00
2023-01-30T03:33:31.380Z,0.00
2023-01-30T03:34:32.246Z,0.00
2023-01-30T03:35:33.122Z,0.00
2023-01-30T03:36:33.948Z,0.00
2023-01-30T03:37:34.799Z,0.00
2023-01-30T03:38:35.683Z,0.00
2023-01-30T03:39:36.516Z,0.00
2023-01-30T03:40:37.367Z,0.00
2023-01-30T03:41:38.216Z,0.00
2023-01-30T03:42:39.085Z,0.00
2023-01-30T03:43:39.886Z,0.00
2023-01-30T03:44:40.757Z,0.00
2023-01-30T03:45:41.594Z,0.00
2023-01-30T03:46:42.439Z,0.00
2023-01-30T03:47:43.292Z,0.00
2023-01-30T03:48:44.151Z,0.00
2023-01-30T03:49:45.004Z,0.00
2023-01-30T03:50:45.855Z,0.00
2023-01-30T03:51:46.703Z,0.00
2023-01-30T03:52:47.557Z,0.00
2023-01-30T03:53:48.406Z,0.00
2023-01-30T03:54:49.276Z,0.00
2023-01-30T03:55:50.134Z,0.00
2023-01-30T03:56:50.981Z,0.00
2023-01-30T03:57:51.859Z,0.00
2023-01-30T03:58:52.641Z,0.00
2023-01-30T03:59:53.585Z,0.00
2023-01-30T04:00:55.970Z,0.00
2023-01-30T04:01:55.343Z,0.00
2023-01-30T04:02:56.207Z,0.00
2023-01-30T04:03:57.066Z,0.00
2023-01-30T04:04:58.069Z,0.00
2023-01-30T04:05:58.412Z,0.00
2023-01-30T04:06:59.285Z,0.00
2023-01-30T04:08:00.240Z,0.00
2023-01-30T04:09:01.036Z,0.00
2023-01-30T04:10:01.901Z,0.00
2023-01-30T04:11:02.745Z,0.00
2023-01-30T04:12:03.596Z,0.00
2023-01-30T04:13:04.463Z,0.00
2023-01-30T04:14:05.268Z,0.00
2023-01-30T04:15:06.603Z,0.00
2023-01-30T04:16:06.947Z,0.00
2023-01-30T04:17:07.797Z,0.00
2023-01-30T04:18:08.648Z,0.00
2023-01-30T04:19:09.511Z,0.00
2023-01-30T04:20:10.376Z,0.00
2023-01-30T04:21:11.236Z,0.00
2023-01-30T04:22:12.084Z,0.00
2023-01-30T04:23:12.942Z,0.00
2023-01-30T04:24:13.787Z,0.00
2023-01-30T04:25:14.648Z,0.00
2023-01-30T04:26:15.608Z,0.00
2023-01-30T04:27:16.423Z,0.00
2023-01-30T04:28:17.285Z,0.00
2023-01-30T04:29:18.112Z,0.00
2023-01-30T04:30:19.103Z,0.00
2023-01-30T04:31:19.956Z,0.00
2023-01-30T04:32:20.815Z,0.00
2023-01-30T04:33:21.669Z,0.00
2023-01-30T04:34:22.521Z,0.00
2023-01-30T04:35:23.380Z,0.00
2023-01-30T04:36:24.231Z,0.00
2023-01-30T04:37:25.085Z,0.00
2023-01-30T04:38:25.937Z,0.00
2023-01-30T04:39:26.792Z,0.00
2023-01-30T04:40:27.648Z,0.00
2023-01-30T04:41:28.501Z,0.00
2023-01-30T04:42:29.356Z,0.00
2023-01-30T04:43:30.233Z,0.00
2023-01-30T04:44:31.044Z,0.00
2023-01-30T04:45:31.926Z,0.00
2023-01-30T04:46:32.764Z,0.00
2023-01-30T04:47:33.343Z,0.00
2023-01-30T04:48:34.185Z,0.00
2023-01-30T04:49:35.027Z,0.00
2023-01-30T04:50:35.900Z,0.00
2023-01-30T04:51:36.763Z,0.00
2023-01-30T04:52:39.637Z,0.00
2023-01-30T04:53:38.213Z,0.00
2023-01-30T04:54:39.058Z,0.00
2023-01-30T04:55:39.932Z,0.00
2023-01-30T04:56:40.786Z,0.00
2023-01-30T04:57:41.633Z,0.00
2023-01-30T04:58:42.572Z,0.00
2023-01-30T04:59:43.383Z,0.00
2023-01-30T05:00:44.291Z,0.00
2023-01-30T05:01:45.164Z,0.00
2023-01-30T05:02:46.008Z,0.00
2023-01-30T05:03:46.860Z,0.00
2023-01-30T05:04:47.706Z,0.00
2023-01-30T05:05:49.055Z,0.00
2023-01-30T05:06:49.452Z,0.00
2023-01-30T05:07:50.290Z,0.00
2023-01-30T05:08:51.147Z,0.00
2023-01-30T05:09:51.993Z,0.00
2023-01-30T05:10:52.858Z,0.00
2023-01-30T05:11:53.708Z,0.00
2023-01-30T05:12:54.566Z,0.00
2023-01-30T05:13:55.491Z,0.00
2023-01-30T05:14:56.317Z,0.00
2023-01-30T05:15:57.567Z,0.00
2023-01-30T05:16:57.919Z,0.00
2023-01-30T05:17:58.753Z,0.00
2023-01-30T05:18:59.601Z,0.00
2023-01-30T05:20:00.489Z,0.00
2023-01-30T05:21:01.545Z,0.00
2023-01-30T05:22:01.928Z,0.00
2023-01-30T05:23:02.780Z,0.00
2023-01-30T05:24:03.751Z,0.00
2023-01-30T05:25:04.608Z,0.00
2023-01-30T05:26:05.553Z,0.00
2023-01-30T05:27:06.431Z,0.00
2023-01-30T05:28:07.301Z,0.00
2023-01-30T05:29:08.202Z,0.00
2023-01-30T05:30:09.000Z,0.00
2023-01-30T05:31:09.979Z,0.00
2023-01-30T05:32:10.826Z,0.00
2023-01-30T05:33:11.771Z,0.00
2023-01-30T05:34:12.662Z,0.00
2023-01-30T05:35:13.489Z,0.00
2023-01-30T05:36:14.351Z,0.00
2023-01-30T05:37:15.207Z,0.00
2023-01-30T05:38:16.038Z,0.00
2023-01-30T05:39:16.899Z,0.00
2023-01-30T05:40:17.750Z,0.00
2023-01-30T05:41:18.609Z,0.00
2023-01-30T05:42:19.474Z,0.00
2023-01-30T05:43:20.310Z,0.00
2023-01-30T05:44:21.178Z,0.00
2023-01-30T05:45:21.976Z,0.00
2023-01-30T05:46:23.104Z,0.00
2023-01-30T05:47:23.405Z,0.00
2023-01-30T05:48:24.262Z,0.00
2023-01-30T05:49:25.111Z,0.00
2023-01-30T05:50:25.961Z,0.00
2023-01-30T05:51:27.046Z,0.00
2023-01-30T05:52:27.400Z,0.00
2023-01-30T05:53:28.257Z,0.00
2023-01-30T05:54:29.114Z,0.00
2023-01-30T05:55:29.965Z,0.00
2023-01-30T05:56:31.051Z,0.00
2023-01-30T05:57:31.404Z,0.00
2023-01-30T05:58:32.263Z,0.00
2023-01-30T05:59:33.129Z,0.00
2023-01-30T06:00:33.939Z,0.00
2023-01-30T06:01:35.056Z,0.00
2023-01-30T06:02:35.403Z,0.00
2023-01-30T06:03:36.293Z,0.00
2023-01-30T06:04:37.108Z,0.00
2023-01-30T06:05:37.965Z,0.00
2023-01-30T06:06:38.832Z,0.00
2023-01-30T06:07:39.672Z,0.00
2023-01-30T06:08:40.539Z,0.00
2023-01-30T06:09:41.444Z,0.00
2023-01-30T06:10:42.256Z,0.00
2023-01-30T06:11:43.115Z,0.00
2023-01-30T06:12:43.967Z,0.00
2023-01-30T06:13:44.827Z,0.00
2023-01-30T06:14:45.685Z,0.00
2023-01-30T06:15:46.580Z,0.00
2023-01-30T06:16:47.446Z,0.00
2023-01-30T06:17:48.232Z,0.00
2023-01-30T06:18:49.124Z,0.00
2023-01-30T06:19:49.951Z,0.00
2023-01-30T06:20:50.799Z,0.00
2023-01-30T06:21:51.678Z,0.00
2023-01-30T06:22:52.527Z,0.00
2023-01-30T06:23:53.388Z,0.00
2023-01-30T06:24:54.238Z,0.00
2023-01-30T06:25:55.085Z,0.00
2023-01-30T06:26:55.951Z,0.00
2023-01-30T06:27:56.805Z,0.00
2023-01-30T06:28:57.653Z,0.00
2023-01-30T06:29:58.526Z,0.00
2023-01-30T06:30:59.489Z,0.00
2023-01-30T06:32:00.326Z,0.00
2023-01-30T06:33:01.152Z,0.00
2023-01-30T06:34:02.035Z,0.00
2023-01-30T06:35:02.917Z,0.00
2023-01-30T06:36:03.817Z,0.00
2023-01-30T06:37:04.662Z,0.00
2023-01-30T06:38:05.508Z,0.00
2023-01-30T06:39:06.364Z,0.00
2023-01-30T06:40:07.217Z,0.00
2023-01-30T06:41:08.079Z,0.00
2023-01-30T06:42:09.032Z,0.00
2023-01-30T06:43:09.886Z,0.00
2023-01-30T06:44:10.743Z,0.00
2023-01-30T06:45:11.617Z,0.00
2023-01-30T06:46:12.461Z,0.00
2023-01-30T06:47:13.342Z,0.00
2023-01-30T06:48:14.189Z,0.00
2023-01-30T06:49:15.049Z,0.00
2023-01-30T06:50:15.897Z,0.00
2023-01-30T06:51:16.747Z,0.00
2023-01-30T06:52:17.606Z,0.00
2023-01-30T06:53:18.463Z,0.00
2023-01-30T06:54:19.323Z,0.00
2023-01-30T06:55:20.610Z,0.00
2023-01-30T06:56:20.666Z,0.00
2023-01-30T06:57:21.556Z,0.00
2023-01-30T06:58:22.400Z,0.00
2023-01-30T06:59:23.251Z,0.00
2023-01-30T07:00:24.123Z,0.00
2023-01-30T07:01:24.971Z,0.00
2023-01-30T07:02:25.856Z,0.00
2023-01-30T07:03:26.687Z,0.00
2023-01-30T07:04:27.610Z,0.00
2023-01-30T07:05:28.499Z,0.00
2023-01-30T07:06:29.357Z,0.00
2023-01-30T07:07:30.534Z,0.00
2023-01-30T07:08:30.890Z,0.00
2023-01-30T07:09:31.751Z,0.00
2023-01-30T07:10:32.610Z,0.00
2023-01-30T07:11:33.451Z,0.00
2023-01-30T07:12:34.309Z,0.00
2023-01-30T07:13:35.154Z,0.00
2023-01-30T07:14:36.016Z,0.00
2023-01-30T07:15:36.883Z,5.62
2023-01-30T07:16:37.726Z,5.62
2023-01-30T07:17:38.584Z,5.62
2023-01-30T07:18:39.409Z,0.00
2023-01-30T07:19:40.980Z,0.00
2023-01-30T07:20:40.756Z,0.00
2023-01-30T07:21:41.608Z,0.00
2023-01-30T07:22:42.467Z,0.00
2023-01-30T07:23:43.321Z,0.00
2023-01-30T07:24:44.168Z,0.00
2023-01-30T07:25:45.019Z,0.00
2023-01-30T07:26:45.885Z,5.62
2023-01-30T07:27:46.731Z,5.62
2023-01-30T07:28:47.597Z,5.62
2023-01-30T07:29:48.441Z,5.62
2023-01-30T07:30:49.366Z,5.62
2023-01-30T07:31:50.200Z,5.62
2023-01-30T07:32:51.057Z,5.62
2023-01-30T07:33:51.900Z,5.62
2023-01-30T07:34:52.744Z,11.25
2023-01-30T07:35:53.608Z,16.88
2023-01-30T07:36:54.459Z,16.88
2023-01-30T07:37:55.548Z,16.88
2023-01-30T07:38:55.890Z,16.88
2023-01-30T07:39:56.753Z,11.25
2023-01-30T07:40:57.611Z,11.25
2023-01-30T07:41:58.458Z,11.25
2023-01-30T07:42:59.342Z,11.25
2023-01-30T07:44:00.177Z,11.25
2023-01-30T07:45:01.030Z,11.25
2023-01-30T07:46:01.917Z,11.25
2023-01-30T07:47:02.789Z,11.25
2023-01-30T07:48:04.082Z,11.25
2023-01-30T07:49:04.444Z,5.62
2023-01-30T07:50:05.281Z,11.25
2023-01-30T07:51:06.143Z,11.25
2023-01-30T07:52:06.983Z,16.88
2023-01-30T07:53:08.027Z,22.50
2023-01-30T07:54:08.379Z,22.50
2023-01-30T07:55:09.231Z,28.12
2023-01-30T07:56:10.097Z,28.12
2023-01-30T07:57:10.972Z,28.12
2023-01-30T07:58:12.062Z,22.50
2023-01-30T07:59:12.403Z,28.12
2023-01-30T08:00:13.331Z,28.12
2023-01-30T08:01:14.299Z,33.75
2023-01-30T08:02:15.093Z,39.38
2023-01-30T08:03:16.051Z,56.25
2023-01-30T08:04:16.883Z,73.12
2023-01-30T08:05:20.530Z,78.75
2023-01-30T08:06:18.396Z,56.25
2023-01-30T08:07:19.247Z,39.38
2023-01-30T08:08:20.117Z,39.38
2023-01-30T08:09:20.972Z,50.62
2023-01-30T08:10:21.890Z,56.25
2023-01-30T08:11:22.681Z,61.88
2023-01-30T08:12:23.578Z,67.50
2023-01-30T08:13:24.527Z,90.00
2023-01-30T08:14:25.381Z,118.12
2023-01-30T08:15:26.231Z,151.88
2023-01-30T08:16:27.144Z,219.38
2023-01-30T08:17:28.055Z,292.50
2023-01-30T08:18:29.057Z,433.12
2023-01-30T08:19:29.885Z,292.50
2023-01-30T08:20:30.748Z,230.62
2023-01-30T08:21:31.595Z,174.38
2023-01-30T08:22:32.469Z,129.38
2023-01-30T08:23:33.036Z,118.12
2023-01-30T08:24:33.886Z,112.50
2023-01-30T08:25:34.762Z,90.00
2023-01-30T08:26:35.665Z,78.75
2023-01-30T08:27:36.547Z,56.25
2023-01-30T08:28:37.389Z,50.62
2023-01-30T08:29:38.241Z,56.25
2023-01-30T08:30:39.099Z,73.12
2023-01-30T08:31:40.244Z,78.75
2023-01-30T08:32:40.575Z,95.62
2023-01-30T08:33:41.549Z,123.75
2023-01-30T08:34:42.389Z,135.00
2023-01-30T08:35:43.252Z,140.62
2023-01-30T08:36:44.098Z,202.50
2023-01-30T08:37:44.954Z,326.25
2023-01-30T08:38:45.811Z,1051.88
2023-01-30T08:39:46.673Z,309.38
2023-01-30T08:40:47.529Z,140.62
2023-01-30T08:41:48.410Z,135.00
2023-01-30T08:42:49.312Z,129.38
2023-01-30T08:43:50.175Z,90.00
2023-01-30T08:44:51.026Z,67.50
2023-01-30T08:45:51.875Z,56.25
2023-01-30T08:46:52.745Z,61.88
2023-01-30T08:47:53.577Z,61.88
2023-01-30T08:48:54.462Z,73.12
2023-01-30T08:49:55.302Z,73.12
2023-01-30T08:50:56.183Z,78.75
2023-01-30T08:51:57.038Z,78.75
2023-01-30T08:52:57.961Z,73.12
2023-01-30T08:53:59.021Z,73.12
2023-01-30T08:54:59.391Z,101.25
2023-01-30T08:56:00.234Z,73.12
2023-01-30T08:57:01.094Z,61.88
2023-01-30T08:58:02.005Z,61.88
2023-01-30T08:59:02.831Z,56.25
2023-01-30T09:00:03.715Z,56.25
2023-01-30T09:01:04.675Z,50.62
2023-01-30T09:02:05.576Z,50.62
2023-01-30T09:03:06.391Z,50.62
2023-01-30T09:04:07.265Z,56.25
2023-01-30T09:05:08.133Z,61.88
2023-01-30T09:06:08.984Z,67.50
2023-01-30T09:07:09.859Z,78.75
2023-01-30T09:08:10.699Z,78.75
2023-01-30T09:09:11.548Z,95.62
2023-01-30T09:10:12.404Z,129.38
2023-01-30T09:11:13.262Z,129.38
2023-01-30T09:12:14.115Z,101.25
2023-01-30T09:13:14.971Z,78.75
2023-01-30T09:14:16.024Z,106.88
2023-01-30T09:15:16.390Z,157.50
2023-01-30T09:16:17.301Z,185.62
2023-01-30T09:17:18.111Z,101.25
2023-01-30T09:18:18.920Z,95.62
2023-01-30T09:19:19.792Z,101.25
2023-01-30T09:20:21.013Z,90.00
2023-01-30T09:21:21.384Z,90.00
2023-01-30T09:22:22.276Z,67.50
2023-01-30T09:23:23.147Z,61.88
2023-01-30T09:24:24.517Z,61.88
2023-01-30T09:25:24.880Z,56.25
2023-01-30T09:26:25.762Z,67.50
2023-01-30T09:27:26.604Z,73.12
2023-01-30T09:28:27.491Z,73.12
2023-01-30T09:29:28.532Z,67.50
2023-01-30T09:30:29.070Z,56.25
2023-01-30T09:31:29.573Z,73.12
2023-01-30T09:32:30.406Z,101.25
2023-01-30T09:33:31.226Z,106.88
2023-01-30T09:34:32.098Z,174.38
2023-01-30T09:35:32.937Z,146.25
2023-01-30T09:36:33.795Z,123.75
2023-01-30T09:37:34.696Z,106.88
2023-01-30T09:38:35.520Z,106.88
2023-01-30T09:39:36.513Z,140.62
2023-01-30T09:40:36.905Z,281.25
2023-01-30T09:41:37.763Z,500.62
2023-01-30T09:42:38.632Z,2013.75
2023-01-30T09:43:39.488Z,405.00
2023-01-30T09:44:40.512Z,360.00
2023-01-30T09:45:40.871Z,416.25
2023-01-30T09:46:41.719Z,309.38
2023-01-30T09:47:42.592Z,163.12
2023-01-30T09:48:43.414Z,123.75
2023-01-30T09:49:44.535Z,106.88
2023-01-30T09:50:44.866Z,95.62
2023-01-30T09:51:45.667Z,106.88
2023-01-30T09:52:46.529Z,106.88
2023-01-30T09:53:47.393Z,78.75
2023-01-30T09:54:48.514Z,78.75
2023-01-30T09:55:48.862Z,84.38
2023-01-30T09:56:49.730Z,78.75
2023-01-30T09:57:50.601Z,78.75
2023-01-30T09:58:51.454Z,73.12
2023-01-30T09:59:52.517Z,61.88
2023-01-30T10:00:52.876Z,61.88
2023-01-30T10:01:53.733Z,61.88
2023-01-30T10:02:54.617Z,56.25
2023-01-30T10:03:55.392Z,50.62
2023-01-30T10:05:01.890Z,50.62
2023-01-30T10:05:57.767Z,45.00
2023-01-30T10:06:57.649Z,39.38
2023-01-30T10:07:58.583Z,45.00
2023-01-30T10:08:59.427Z,56.25
2023-01-30T10:10:00.519Z,56.25
2023-01-30T10:11:10.026Z,61.88
2023-01-30T10:12:02.612Z,84.38
2023-01-30T10:13:02.469Z,101.25
2023-01-30T10:14:03.338Z,95.62
2023-01-30T10:15:04.514Z,106.88
2023-01-30T10:16:04.914Z,123.75
2023-01-30T10:17:05.743Z,168.75
2023-01-30T10:18:06.638Z,225.00
2023-01-30T10:19:07.476Z,326.25
2023-01-30T10:20:08.549Z,360.00
2023-01-30T10:21:08.907Z,298.12
2023-01-30T10:22:09.789Z,264.38
2023-01-30T10:23:10.648Z,258.75
2023-01-30T10:24:11.520Z,303.75
2023-01-30T10:25:13.598Z,298.12
2023-01-30T10:26:12.982Z,309.38
2023-01-30T10:27:13.834Z,241.88
2023-01-30T10:28:14.699Z,326.25
2023-01-30T10:29:15.582Z,241.88
2023-01-30T10:30:17.129Z,309.38
2023-01-30T10:31:17.387Z,298.12
2023-01-30T10:32:17.686Z,292.50
2023-01-30T10:33:18.571Z,331.88
2023-01-30T10:34:19.397Z,247.50
2023-01-30T10:35:20.532Z,196.88
2023-01-30T10:36:20.895Z,168.75
2023-01-30T10:37:21.759Z,157.50
2023-01-30T10:38:22.609Z,146.25
2023-01-30T10:39:23.462Z,146.25
2023-01-30T10:40:24.319Z,151.88
2023-01-30T10:41:25.215Z,151.88
2023-01-30T10:42:26.084Z,140.62
2023-01-30T10:43:26.948Z,146.25
2023-01-30T10:44:27.796Z,123.75
2023-01-30T10:45:28.659Z,95.62
2023-01-30T10:46:29.544Z,90.00
2023-01-30T10:47:41.645Z,84.38
2023-01-30T10:48:43.909Z,84.38
2023-01-30T10:49:32.896Z,78.75
2023-01-30T10:50:33.059Z,78.75
2023-01-30T10:51:33.439Z,67.50
2023-01-30T10:52:34.291Z,67.50
2023-01-30T10:53:35.144Z,61.88
2023-01-30T10:54:36.028Z,61.88
2023-01-30T10:55:38.369Z,67.50
2023-01-30T10:56:37.866Z,67.50
2023-01-30T10:57:38.717Z,67.50
2023-01-30T10:58:39.563Z,61.88
2023-01-30T10:59:40.468Z,67.50
2023-01-30T11:00:41.522Z,67.50
2023-01-30T11:01:41.911Z,73.12
2023-01-30T11:02:42.938Z,78.75
2023-01-30T11:03:43.331Z,78.75
2023-01-30T11:04:44.160Z,73.12
2023-01-30T11:05:45.535Z,73.12
2023-01-30T11:06:46.718Z,78.75
2023-01-30T11:07:46.571Z,106.88
2023-01-30T11:08:47.445Z,118.12
2023-01-30T11:09:48.285Z,106.88
2023-01-30T11:10:49.143Z,118.12
2023-01-30T11:11:50.000Z,163.12
2023-01-30T11:12:50.848Z,185.62
2023-01-30T11:13:51.713Z,185.62
2023-01-30T11:14:52.576Z,196.88
2023-01-30T11:15:53.609Z,168.75
2023-01-30T11:16:54.411Z,157.50
2023-01-30T11:17:57.125Z,146.25
2023-01-30T11:19:58.023Z,95.62
2023-01-30T11:20:58.019Z,95.62
2023-01-30T11:21:58.376Z,112.50
2023-01-30T11:22:59.244Z,95.62
2023-01-30T11:24:00.134Z,90.00
2023-01-30T11:25:00.977Z,78.75
2023-01-30T11:26:11.006Z,78.75
2023-01-30T11:27:03.673Z,84.38
2023-01-30T11:28:03.467Z,101.25
2023-01-30T11:29:04.328Z,106.88
2023-01-30T11:30:05.197Z,123.75
2023-01-30T11:31:06.044Z,135.00
2023-01-30T11:32:06.930Z,135.00
2023-01-30T11:33:07.764Z,123.75
2023-01-30T11:34:08.638Z,118.12
2023-01-30T11:35:09.431Z,101.25
2023-01-30T11:36:10.515Z,78.75
2023-01-30T11:37:10.858Z,90.00
2023-01-30T11:38:11.721Z,106.88
2023-01-30T11:39:12.599Z,112.50
2023-01-30T11:40:13.470Z,140.62
2023-01-30T11:41:14.496Z,163.12
2023-01-30T11:42:14.855Z,185.62
2023-01-30T11:43:15.730Z,219.38
2023-01-30T11:44:16.581Z,236.25
2023-01-30T11:45:18.520Z,180.00
2023-01-30T11:46:18.007Z,157.50
2023-01-30T11:47:18.865Z,151.88
2023-01-30T11:48:33.382Z,123.75
2023-01-30T11:49:45.464Z,90.00
2023-01-30T11:50:24.327Z,106.88
2023-01-30T11:51:23.509Z,123.75
2023-01-30T11:52:22.849Z,118.12
2023-01-30T11:53:23.709Z,101.25
2023-01-30T11:54:24.585Z,73.12
2023-01-30T11:55:25.433Z,67.50
2023-01-30T11:56:26.307Z,101.25
2023-01-30T11:57:27.162Z,140.62
2023-01-30T11:58:28.022Z,146.25
2023-01-30T11:59:28.891Z,140.62
2023-01-30T12:00:29.727Z,123.75
2023-01-30T12:01:31.008Z,112.50
2023-01-30T12:02:31.375Z,112.50
2023-01-30T12:03:32.330Z,135.00
2023-01-30T12:04:33.150Z,140.62
2023-01-30T12:05:33.982Z,112.50
2023-01-30T12:06:35.029Z,78.75
2023-01-30T12:07:35.365Z,73.12
2023-01-30T12:08:42.990Z,483.75
2023-01-30T12:09:40.089Z,376.88
2023-01-30T12:10:37.795Z,320.62
2023-01-30T12:11:38.653Z,286.88
2023-01-30T12:12:39.506Z,236.25
2023-01-30T12:13:40.364Z,208.12
2023-01-30T12:14:41.234Z,191.25
2023-01-30T12:15:42.086Z,196.88
2023-01-30T12:16:43.004Z,208.12
2023-01-30T12:17:43.854Z,219.38
2023-01-30T12:18:44.698Z,191.25
2023-01-30T12:19:45.578Z,180.00
2023-01-30T12:20:46.391Z,163.12
2023-01-30T12:21:47.524Z,163.12
2023-01-30T12:22:47.848Z,174.38
2023-01-30T12:23:48.711Z,191.25
2023-01-30T12:24:49.557Z,202.50
2023-01-30T12:25:50.421Z,202.50
2023-01-30T12:26:51.491Z,202.50
2023-01-30T12:27:51.870Z,185.62
2023-01-30T12:28:52.718Z,180.00
2023-01-30T12:29:53.573Z,208.12
2023-01-30T12:30:54.494Z,219.38
2023-01-30T12:31:55.504Z,236.25
2023-01-30T12:32:55.854Z,264.38
2023-01-30T12:33:56.715Z,281.25
2023-01-30T12:34:57.608Z,298.12
2023-01-30T12:35:58.434Z,309.38
2023-01-30T12:36:59.353Z,388.12
2023-01-30T12:38:00.160Z,511.88
2023-01-30T12:39:01.006Z,298.12
2023-01-30T12:40:01.861Z,202.50
2023-01-30T12:41:02.730Z,151.88
2023-01-30T12:42:03.581Z,118.12
2023-01-30T12:43:04.470Z,112.50
2023-01-30T12:44:05.308Z,118.12
2023-01-30T12:45:06.178Z,118.12
2023-01-30T12:46:07.079Z,135.00
2023-01-30T12:47:07.898Z,303.75
2023-01-30T12:48:08.771Z,219.38
2023-01-30T12:49:11.601Z,225.00
2023-01-30T12:50:10.221Z,270.00
2023-01-30T12:51:11.040Z,348.75
2023-01-30T12:52:12.010Z,2025.00
2023-01-30T12:53:12.860Z,742.50
2023-01-30T12:54:13.705Z,388.12
2023-01-30T12:56:15.360Z,264.38
2023-01-30T12:57:16.988Z,236.25
2023-01-30T12:58:16.868Z,202.50
2023-01-30T12:59:17.724Z,180.00
2023-01-30T13:00:19.013Z,196.88
2023-01-30T13:01:19.642Z,191.25
2023-01-30T13:02:20.523Z,236.25
2023-01-30T13:03:21.365Z,478.12
2023-01-30T13:04:22.240Z,270.00
2023-01-30T13:05:23.141Z,253.12
2023-01-30T13:06:23.938Z,219.38
2023-01-30T13:07:25.019Z,174.38
2023-01-30T13:08:25.355Z,157.50
2023-01-30T13:09:26.988Z,151.88
2023-01-30T13:10:26.854Z,123.75
2023-01-30T13:11:27.720Z,95.62
2023-01-30T13:12:29.002Z,90.00
2023-01-30T13:13:29.346Z,90.00
2023-01-30T13:14:30.208Z,95.62